Time;durP1;ratioP1;P1;durP2;ratioP2;P2;SDS_P1;SDS_P2;PMS_P1;PMS_P2;Temp;Humidity;BMP_temperature;BMP_pressure;BME280_temperature;BME280_humidity;BME280_pressure;Samples;Min_cycle;Max_cycle;Signal;HPM_P1;HPM_P2
2022/05/13 00:02:11;;;;;;;8.05;3.08;;;13.40;99.90;;;;;;5112169;28;20104;-60
2022/05/13 00:04:38;;;;;;;8.70;3.10;;;13.40;99.90;;;;;;5111792;28;20049;-60
2022/05/13 00:07:05;;;;;;;7.47;3.20;;;13.30;99.90;;;;;;5076813;28;20043;-59
2022/05/13 00:12:16;;;;;;;8.85;2.88;;;13.30;99.90;;;;;;5111169;28;20048;-58
2022/05/13 00:14:43;;;;;;;9.93;3.08;;;13.30;99.90;;;;;;5111802;28;20051;-58
2022/05/13 00:17:10;;;;;;;8.02;3.08;;;13.30;99.90;;;;;;5093858;28;20396;-59
2022/05/13 00:19:36;;;;;;;9.07;2.92;;;13.30;99.90;;;;;;5111769;28;20075;-62
2022/05/13 00:22:02;;;;;;;13.05;3.72;;;13.30;99.90;;;;;;5111923;28;20039;-60
2022/05/13 00:24:28;;;;;;;6.40;2.80;;;13.30;99.90;;;;;;5077012;28;20051;-60
2022/05/13 00:26:54;;;;;;;7.60;3.08;;;13.30;99.90;;;;;;5059486;28;20107;-61
2022/05/13 00:29:19;;;;;;;9.07;3.38;;;13.30;99.90;;;;;;5076667;28;20047;-60
2022/05/13 00:31:45;;;;;;;9.73;3.45;;;13.30;99.90;;;;;;5111464;28;20052;-60
2022/05/13 00:34:18;;;;;;;9.00;3.35;;;13.30;99.90;;;;;;5111851;28;20181;-60
2022/05/13 00:36:44;;;;;;;10.15;3.08;;;13.20;99.90;;;;;;5093412;28;20480;-60
2022/05/13 00:39:10;;;;;;;10.13;3.65;;;13.20;99.90;;;;;;5111657;28;20055;-60
2022/05/13 00:41:36;;;;;;;8.27;3.35;;;13.10;99.90;;;;;;5076773;28;20139;-60
2022/05/13 00:44:02;;;;;;;8.98;3.30;;;13.20;99.90;;;;;;5093204;28;20046;-60
2022/05/13 00:46:29;;;;;;;8.65;3.45;;;13.20;99.90;;;;;;5093094;28;20098;-60
2022/05/13 00:48:58;;;;;;;11.48;3.42;;;13.20;99.90;;;;;;5093121;28;20467;-60
2022/05/13 00:51:28;;;;;;;13.27;4.03;;;13.20;99.90;;;;;;5093676;28;20111;-60
2022/05/13 00:53:58;;;;;;;9.13;3.38;;;13.20;99.90;;;;;;5111305;28;20047;-59
2022/05/13 00:56:24;;;;;;;9.88;3.60;;;13.20;99.90;;;;;;5093842;28;20039;-59
2022/05/13 00:58:55;;;;;;;9.15;3.67;;;13.20;99.90;;;;;;5110816;28;20047;-60
2022/05/13 01:01:22;;;;;;;8.73;3.58;;;13.20;99.90;;;;;;5111607;28;20435;-59
2022/05/13 01:03:49;;;;;;;12.93;3.17;;;13.20;99.90;;;;;;5092998;28;20444;-59
2022/05/13 01:06:19;;;;;;;11.40;3.45;;;13.20;99.90;;;;;;5111417;28;20048;-60
2022/05/13 01:08:47;;;;;;;11.32;3.42;;;13.20;99.90;;;;;;5110678;28;20039;-63
2022/05/13 01:11:16;;;;;;;9.05;3.38;;;13.20;99.90;;;;;;5076909;28;20047;-59
2022/05/13 01:13:45;;;;;;;8.70;3.17;;;13.20;99.90;;;;;;5093613;28;20416;-60
2022/05/13 01:16:11;;;;;;;11.30;3.40;;;13.10;99.90;;;;;;5093416;28;20126;-60
2022/05/13 01:18:39;;;;;;;9.63;3.45;;;13.10;99.90;;;;;;5093152;28;20048;-60
2022/05/13 01:21:08;;;;;;;8.05;3.20;;;13.20;99.90;;;;;;5110746;28;20047;-60
2022/05/13 01:23:45;;;;;;;10.77;3.25;;;13.20;99.90;;;;;;5113278;28;20079;-60
2022/05/13 01:26:12;;;;;;;10.73;3.53;;;13.10;99.90;;;;;;5097018;28;20050;-60
2022/05/13 01:28:41;;;;;;;12.73;4.78;;;13.10;99.90;;;;;;5115096;28;20040;-60
2022/05/13 01:31:11;;;;;;;9.13;3.15;;;13.20;99.90;;;;;;5114665;28;20134;-61
2022/05/13 01:33:38;;;;;;;10.30;4.05;;;13.10;99.90;;;;;;5097021;28;20499;-60
2022/05/13 01:36:05;;;;;;;12.63;3.88;;;13.10;99.90;;;;;;5079656;28;20471;-60
2022/05/13 01:38:35;;;;;;;11.70;3.28;;;13.10;99.90;;;;;;5096633;28;20035;-60
2022/05/13 01:41:03;;;;;;;12.85;3.53;;;13.10;99.90;;;;;;5114165;28;20043;-60
2022/05/13 01:43:29;;;;;;;9.25;3.63;;;13.10;99.90;;;;;;5096328;28;20047;-61
2022/05/13 01:45:56;;;;;;;11.23;3.17;;;13.10;99.90;;;;;;5095592;28;20043;-59
2022/05/13 01:48:23;;;;;;;9.27;3.20;;;13.10;99.90;;;;;;5092737;28;20135;-60
2022/05/13 01:50:49;;;;;;;11.43;3.72;;;13.10;99.90;;;;;;5092909;28;20048;-62
2022/05/13 01:53:15;;;;;;;9.63;3.13;;;13.10;99.90;;;;;;5076274;28;20046;-60
2022/05/13 01:55:42;;;;;;;10.60;3.78;;;13.00;99.90;;;;;;5094413;28;20040;-60
2022/05/13 01:58:13;;;;;;;8.70;3.95;;;13.10;99.90;;;;;;5092509;28;20483;-60
2022/05/13 02:00:40;;;;;;;8.45;3.55;;;13.00;99.90;;;;;;5093060;28;20561;-60
2022/05/13 02:05:50;;;;;;;9.98;4.07;;;13.00;99.90;;;;;;5094042;28;20074;-61
2022/05/13 02:08:16;;;;;;;11.48;4.38;;;13.00;99.90;;;;;;5092632;28;20478;-58
2022/05/13 02:10:43;;;;;;;8.90;3.42;;;13.10;99.90;;;;;;5093967;28;20199;-60
2022/05/13 02:13:10;;;;;;;12.68;3.97;;;13.00;99.90;;;;;;5092345;28;20087;-58
2022/05/13 02:15:36;;;;;;;11.15;3.70;;;13.00;99.90;;;;;;5093782;28;20096;-58
2022/05/13 02:18:02;;;;;;;13.18;4.18;;;13.00;99.90;;;;;;5092071;28;20078;-59
2022/05/13 02:20:27;;;;;;;12.75;4.32;;;13.00;99.90;;;;;;5076005;28;20177;-58
2022/05/13 02:22:53;;;;;;;13.38;3.97;;;13.00;99.90;;;;;;5075274;28;20047;-59
2022/05/13 02:25:19;;;;;;;14.18;4.07;;;13.00;99.90;;;;;;5075565;28;20071;-58
2022/05/13 02:27:45;;;;;;;11.40;4.43;;;13.00;99.90;;;;;;5092352;28;20040;-60
2022/05/13 02:30:11;;;;;;;10.93;4.15;;;13.00;99.90;;;;;;5093199;28;20044;-58
2022/05/13 02:32:37;;;;;;;15.05;4.45;;;12.90;99.90;;;;;;5092398;28;20090;-58
2022/05/13 02:35:04;;;;;;;11.90;4.63;;;12.90;99.90;;;;;;5092139;28;20129;-59
2022/05/13 02:37:30;;;;;;;14.93;4.60;;;12.90;99.90;;;;;;5093371;28;20040;-60
2022/05/13 02:39:56;;;;;;;15.75;4.32;;;12.90;99.90;;;;;;5092054;28;20059;-61
2022/05/13 02:42:21;;;;;;;13.73;4.75;;;12.90;99.90;;;;;;5092215;28;20416;-59
2022/05/13 02:44:47;;;;;;;9.77;4.60;;;12.90;99.90;;;;;;5093133;28;20370;-60
2022/05/13 02:47:13;;;;;;;12.75;4.10;;;12.90;99.90;;;;;;5091190;28;20113;-59
2022/05/13 02:49:38;;;;;;;14.85;4.53;;;12.90;99.90;;;;;;5093278;28;20052;-60
2022/05/13 02:52:05;;;;;;;16.65;5.00;;;12.90;99.90;;;;;;5092890;28;20044;-60
2022/05/13 02:54:31;;;;;;;13.32;5.10;;;12.90;99.90;;;;;;5092037;28;20079;-60
2022/05/13 02:56:56;;;;;;;13.65;5.00;;;12.90;99.90;;;;;;5092944;28;20044;-59
2022/05/13 02:59:22;;;;;;;13.77;5.15;;;12.80;99.90;;;;;;5092266;28;20051;-59
2022/05/13 03:01:48;;;;;;;21.13;5.40;;;12.90;99.90;;;;;;5093045;28;20127;-59
2022/05/13 03:04:13;;;;;;;15.57;4.78;;;12.90;99.90;;;;;;5091245;28;20044;-59
2022/05/13 03:06:39;;;;;;;14.20;4.25;;;12.90;99.90;;;;;;5074900;28;20044;-59
2022/05/13 03:09:05;;;;;;;15.70;4.32;;;12.80;99.90;;;;;;5091386;28;20059;-59
2022/05/13 03:11:31;;;;;;;15.80;4.80;;;12.80;99.90;;;;;;5092782;28;20048;-59
2022/05/13 03:13:57;;;;;;;14.82;4.93;;;12.80;99.90;;;;;;5092730;28;20369;-59
2022/05/13 03:16:24;;;;;;;14.55;4.93;;;12.80;99.90;;;;;;5074359;28;20036;-59
2022/05/13 03:18:53;;;;;;;18.38;4.97;;;12.80;99.90;;;;;;5091316;28;20046;-59
2022/05/13 03:21:19;;;;;;;15.85;4.68;;;12.80;99.90;;;;;;5090976;28;20047;-59
2022/05/13 03:23:46;;;;;;;12.15;4.63;;;12.80;99.90;;;;;;5092557;28;20152;-58
2022/05/13 03:26:14;;;;;;;16.20;4.50;;;12.70;99.90;;;;;;5090981;28;20048;-58
2022/05/13 03:28:40;;;;;;;11.02;4.00;;;12.70;99.90;;;;;;5091389;28;20044;-58
2022/05/13 03:31:06;;;;;;;10.20;4.00;;;12.70;99.90;;;;;;5090864;28;20126;-59
2022/05/13 03:33:32;;;;;;;15.20;4.97;;;12.70;99.90;;;;;;5092355;28;20087;-59
2022/05/13 03:35:58;;;;;;;16.77;4.57;;;12.70;99.90;;;;;;5091155;28;20067;-60
2022/05/13 03:38:24;;;;;;;12.02;4.38;;;12.70;99.90;;;;;;5090470;28;20473;-59
2022/05/13 03:40:50;;;;;;;14.32;5.38;;;12.70;99.90;;;;;;5091067;28;20044;-59
2022/05/13 03:43:16;;;;;;;17.55;4.65;;;12.70;99.90;;;;;;5091820;28;20044;-59
2022/05/13 03:45:42;;;;;;;15.65;4.30;;;12.70;99.90;;;;;;5091921;28;20055;-59
2022/05/13 03:48:08;;;;;;;18.40;4.80;;;12.70;99.90;;;;;;5073170;28;20066;-61
2022/05/13 03:50:37;;;;;;;14.43;4.15;;;12.70;99.90;;;;;;5073991;28;20060;-59
2022/05/13 03:53:03;;;;;;;15.25;4.70;;;12.70;99.90;;;;;;5091937;28;20084;-59
2022/05/13 03:55:29;;;;;;;12.68;4.10;;;12.70;99.90;;;;;;5090279;28;20075;-59
2022/05/13 03:57:55;;;;;;;11.13;4.30;;;12.70;99.90;;;;;;5090571;28;20040;-60
2022/05/13 04:00:22;;;;;;;16.63;5.00;;;12.70;99.90;;;;;;5090451;28;20044;-58
2022/05/13 04:02:47;;;;;;;11.15;4.13;;;12.70;99.90;;;;;;5090810;28;20052;-61
2022/05/13 04:10:42;;;;;;;11.52;4.65;;;12.60;99.90;;;;;;5091734;28;20077;-59
2022/05/13 04:16:04;;;;;;;16.42;5.55;;;12.70;99.90;;;;;;5090514;28;20257;-61
2022/05/13 04:18:44;;;;;;;17.27;5.32;;;12.70;99.90;;;;;;5090959;28;20076;-60
2022/05/13 04:21:22;;;;;;;13.48;4.95;;;12.60;99.90;;;;;;5091245;28;20117;-60
2022/05/13 04:23:50;;;;;;;14.70;5.03;;;12.70;99.90;;;;;;5091372;28;20055;-59
2022/05/13 04:26:17;;;;;;;17.63;5.05;;;12.70;99.90;;;;;;5089634;28;20055;-59
2022/05/13 04:28:45;;;;;;;18.75;4.65;;;12.70;99.90;;;;;;5073622;28;20075;-59
2022/05/13 04:31:12;;;;;;;15.05;5.40;;;12.70;99.90;;;;;;5091377;28;20400;-59
2022/05/13 04:33:38;;;;;;;21.92;5.22;;;12.70;99.90;;;;;;5091128;28;20039;-61
2022/05/13 04:36:05;;;;;;;19.48;5.18;;;12.70;99.90;;;;;;5056835;28;20036;-59
2022/05/13 04:38:31;;;;;;;13.70;4.90;;;12.70;99.90;;;;;;5090916;28;20097;-60
2022/05/13 04:42:49;;;;;;;19.77;4.90;;;12.70;99.90;;;;;;5090294;28;20048;-59
2022/05/13 04:43:43;;;;;;;19.65;5.10;;;12.70;99.90;;;;;;5091161;28;20401;-58
2022/05/13 04:46:08;;;;;;;14.02;4.85;;;12.70;99.90;;;;;;5090068;28;20051;-59
2022/05/13 04:48:34;;;;;;;14.50;4.03;;;12.70;99.90;;;;;;5109713;28;20293;-59
2022/05/13 04:51:00;;;;;;;16.17;5.20;;;12.80;99.90;;;;;;5111581;28;20635;-58
2022/05/13 04:53:35;;;;;;;14.82;4.65;;;12.80;99.90;;;;;;5093143;28;20094;-59
2022/05/13 04:56:03;;;;;;;17.63;5.35;;;12.80;99.90;;;;;;5111556;28;20097;-60
2022/05/13 04:58:28;;;;;;;17.38;5.40;;;12.80;99.90;;;;;;5095118;28;20044;-59
2022/05/13 05:00:56;;;;;;;18.45;4.60;;;12.80;99.90;;;;;;5097765;28;20051;-60
2022/05/13 05:03:24;;;;;;;15.75;5.00;;;12.80;99.90;;;;;;5097174;28;20047;-60
2022/05/13 05:05:50;;;;;;;16.92;5.20;;;12.90;99.90;;;;;;5080631;28;20069;-60
2022/05/13 05:08:17;;;;;;;18.98;4.57;;;12.80;99.90;;;;;;5097490;28;20047;-63
2022/05/13 05:10:44;;;;;;;19.73;4.30;;;12.90;99.90;;;;;;5114704;28;20047;-60
2022/05/13 05:13:17;;;;;;;16.90;4.75;;;12.90;99.90;;;;;;5097399;28;20449;-61
2022/05/13 05:15:42;;;;;;;21.08;4.70;;;12.90;99.90;;;;;;5114994;28;20114;-60
2022/05/13 05:18:08;;;;;;;15.02;4.47;;;12.90;99.90;;;;;;5114982;28;20083;-60
2022/05/13 05:20:34;;;;;;;17.85;4.05;;;13.00;99.90;;;;;;5114630;28;20484;-59
2022/05/13 05:23:00;;;;;;;10.75;3.65;;;13.00;99.90;;;;;;5115081;28;20040;-59
2022/05/13 05:25:28;;;;;;;16.17;4.97;;;13.00;99.90;;;;;;5114649;28;20040;-59
2022/05/13 05:27:56;;;;;;;12.63;3.80;;;13.10;99.90;;;;;;5114833;28;20511;-60
2022/05/13 05:30:22;;;;;;;13.73;3.38;;;13.20;99.90;;;;;;5115042;28;20039;-63
2022/05/13 05:32:48;;;;;;;14.23;3.47;;;13.20;99.90;;;;;;5096789;28;20077;-59
2022/05/13 05:35:18;;;;;;;10.20;3.00;;;13.20;99.90;;;;;;5079839;28;20554;-58
2022/05/13 05:37:44;;;;;;;10.98;3.28;;;13.20;99.90;;;;;;5096270;28;20047;-61
2022/05/13 05:40:11;;;;;;;14.30;3.67;;;13.30;99.90;;;;;;5096495;28;20040;-60
2022/05/13 05:42:37;;;;;;;8.25;2.47;;;13.40;99.90;;;;;;5096380;28;20083;-59
2022/05/13 05:45:05;;;;;;;10.25;3.22;;;13.40;99.90;;;;;;5096382;28;20059;-61
2022/05/13 05:47:31;;;;;;;8.30;3.05;;;13.50;99.90;;;;;;5113908;28;20062;-60
2022/05/13 05:49:58;;;;;;;8.50;3.03;;;13.50;99.90;;;;;;5079499;28;20134;-58
2022/05/13 05:52:24;;;;;;;12.63;2.90;;;13.60;99.90;;;;;;5114500;28;20047;-61
2022/05/13 05:57:33;;;;;;;10.90;3.47;;;13.60;99.90;;;;;;5081851;28;20490;-59
2022/05/13 06:00:00;;;;;;;10.35;2.85;;;13.60;99.90;;;;;;5114566;28;20051;-59
2022/05/13 06:02:27;;;;;;;12.32;3.42;;;13.60;99.90;;;;;;5096084;28;20484;-60
2022/05/13 06:04:53;;;;;;;7.13;3.20;;;13.60;99.90;;;;;;5096262;28;20047;-59
2022/05/13 06:07:18;;;;;;;10.70;3.13;;;13.60;99.90;;;;;;5095956;28;20499;-60
2022/05/13 06:09:44;;;;;;;11.13;2.97;;;13.50;99.90;;;;;;5094361;28;20044;-60
2022/05/13 06:12:12;;;;;;;11.00;3.15;;;13.50;99.90;;;;;;5114267;28;20043;-61
2022/05/13 06:14:39;;;;;;;7.82;2.78;;;13.50;99.90;;;;;;5113923;28;20048;-59
2022/05/13 06:17:05;;;;;;;11.25;3.33;;;13.50;99.90;;;;;;5114345;28;20048;-59
2022/05/13 06:19:31;;;;;;;10.57;2.58;;;13.50;99.90;;;;;;5113871;28;20101;-59
2022/05/13 06:21:57;;;;;;;8.80;2.67;;;13.60;99.90;;;;;;5114258;28;20463;-60
2022/05/13 06:24:22;;;;;;;7.75;2.47;;;13.60;99.90;;;;;;5079299;28;20138;-61
2022/05/13 06:26:50;;;;;;;9.93;2.58;;;13.60;99.90;;;;;;5078308;28;20050;-59
2022/05/13 06:29:17;;;;;;;8.95;2.67;;;13.60;99.90;;;;;;5113881;28;20051;-59
2022/05/13 06:31:43;;;;;;;9.23;3.00;;;13.60;99.90;;;;;;5095207;28;20091;-60
2022/05/13 06:34:10;;;;;;;6.18;2.78;;;13.60;99.90;;;;;;5095720;28;20051;-60
2022/05/13 06:36:36;;;;;;;11.20;3.10;;;13.60;99.90;;;;;;5113198;28;20111;-60
2022/05/13 06:39:03;;;;;;;8.55;2.83;;;13.60;99.90;;;;;;5113523;28;20388;-60
2022/05/13 06:41:29;;;;;;;12.23;2.78;;;13.60;99.90;;;;;;5113563;28;20040;-60
2022/05/13 06:43:55;;;;;;;7.72;2.75;;;13.70;99.90;;;;;;5095075;28;20135;-60
2022/05/13 06:46:21;;;;;;;11.07;3.17;;;13.70;99.90;;;;;;5113509;28;20051;-60
2022/05/13 06:48:47;;;;;;;10.65;2.85;;;13.80;99.90;;;;;;5112801;28;20052;-60
2022/05/13 06:51:14;;;;;;;11.38;3.35;;;13.80;99.90;;;;;;5095511;28;20056;-60
2022/05/13 06:53:40;;;;;;;10.57;3.28;;;13.90;99.90;;;;;;5113135;28;20170;-59
2022/05/13 06:56:06;;;;;;;8.90;2.90;;;14.00;99.90;;;;;;5113562;28;20134;-61
2022/05/13 06:58:32;;;;;;;12.18;3.38;;;14.10;99.90;;;;;;5078385;28;20377;-60
2022/05/13 07:00:57;;;;;;;8.55;2.50;;;14.30;99.90;;;;;;5077989;28;20039;-60
2022/05/13 07:03:23;;;;;;;9.48;2.42;;;14.40;99.90;;;;;;5095003;28;20092;-60
2022/05/13 07:05:49;;;;;;;8.93;3.00;;;14.60;99.90;;;;;;5113191;28;20050;-60
2022/05/13 07:08:15;;;;;;;7.60;2.42;;;14.80;99.90;;;;;;5113274;28;20388;-60
2022/05/13 07:10:42;;;;;;;10.40;2.60;;;14.90;99.90;;;;;;5112599;28;20400;-61
2022/05/13 07:13:10;;;;;;;6.35;2.67;;;14.90;99.90;;;;;;5094513;28;20515;-60
2022/05/13 07:15:35;;;;;;;9.23;2.70;;;14.90;99.90;;;;;;5113001;28;20047;-62
2022/05/13 07:18:02;;;;;;;8.98;2.70;;;14.90;99.90;;;;;;5112639;28;20318;-60
2022/05/13 07:20:28;;;;;;;8.35;2.55;;;14.80;99.90;;;;;;5094622;28;20048;-60
2022/05/13 07:22:55;;;;;;;7.22;2.28;;;14.80;99.90;;;;;;5112548;28;20372;-60
2022/05/13 07:25:21;;;;;;;12.55;3.17;;;14.80;99.90;;;;;;5112675;28;20582;-60
2022/05/13 07:27:48;;;;;;;10.25;2.47;;;15.20;99.90;;;;;;5112389;28;20050;-60
2022/05/13 07:30:14;;;;;;;9.55;2.72;;;16.20;99.90;;;;;;5112557;28;20135;-60
2022/05/13 07:32:40;;;;;;;7.53;2.50;;;17.50;99.90;;;;;;5094274;28;20126;-63
2022/05/13 07:35:06;;;;;;;10.35;2.45;;;18.40;99.90;;;;;;5094187;28;20044;-60
2022/05/13 07:37:32;;;;;;;9.32;2.28;;;18.80;99.90;;;;;;5060926;28;20484;-61
2022/05/13 07:42:43;;;;;;;8.90;2.80;;;19.20;99.90;;;;;;5111932;28;20059;-61
2022/05/13 07:45:09;;;;;;;6.20;2.30;;;19.00;99.90;;;;;;5112331;28;20054;-61
2022/05/13 07:47:35;;;;;;;6.68;2.30;;;18.60;99.90;;;;;;5111936;28;20062;-61
2022/05/13 07:50:03;;;;;;;7.15;2.05;;;18.40;99.90;;;;;;5111750;28;20197;-59
2022/05/13 07:52:28;;;;;;;7.32;2.15;;;18.30;99.90;;;;;;5112278;28;20079;-62
2022/05/13 07:54:54;;;;;;;8.10;2.00;;;18.10;99.90;;;;;;5093548;28;20075;-59
2022/05/13 07:57:20;;;;;;;8.15;2.05;;;17.90;99.90;;;;;;5077106;28;20051;-61
2022/05/13 08:02:31;;;;;;;;;;;17.10;99.90;;;;;;5096654;28;20573;-60
2022/05/13 08:04:57;;;;;;;6.82;2.00;;;16.90;99.90;;;;;;5111529;28;19924;-60
2022/05/13 08:07:23;;;;;;;6.65;1.83;;;17.10;99.90;;;;;;5075985;28;20399;-58
2022/05/13 08:09:49;;;;;;;4.95;1.80;;;17.20;99.90;;;;;;5111353;28;20040;-60
2022/05/13 08:12:14;;;;;;;6.07;2.00;;;17.00;99.90;;;;;;5111948;28;20047;-60
2022/05/13 08:14:40;;;;;;;4.40;1.85;;;16.70;99.90;;;;;;5076972;28;20083;-59
2022/05/13 08:17:06;;;;;;;5.45;2.13;;;16.50;99.90;;;;;;5093707;28;20122;-60
2022/05/13 08:19:32;;;;;;;5.85;1.98;;;16.30;99.90;;;;;;5077067;28;20035;-60
2022/05/13 08:21:58;;;;;;;7.03;2.22;;;16.40;99.90;;;;;;5076669;28;20050;-58
2022/05/13 08:24:23;;;;;;;15.50;3.15;;;16.50;99.90;;;;;;5111931;28;20093;-59
2022/05/13 08:26:49;;;;;;;9.32;2.38;;;16.40;99.90;;;;;;5093619;28;20213;-60
2022/05/13 08:29:15;;;;;;;11.70;2.55;;;16.30;99.90;;;;;;5093163;28;20059;-59
2022/05/13 08:31:40;;;;;;;10.57;2.58;;;16.20;99.90;;;;;;5093291;28;20134;-60
2022/05/13 08:34:06;;;;;;;7.68;2.40;;;16.20;99.90;;;;;;5092751;28;20095;-60
2022/05/13 08:36:33;;;;;;;7.80;2.08;;;16.30;99.90;;;;;;5076635;28;20048;-60
2022/05/13 08:38:58;;;;;;;10.02;2.47;;;16.40;99.90;;;;;;5093156;28;20420;-60
2022/05/13 08:41:57;;;;;;;5.85;2.17;;;16.80;99.90;;;;;;5111576;28;20090;-60
2022/05/13 08:44:25;;;;;;;7.40;2.00;;;17.10;99.90;;;;;;5111733;28;20113;-60
2022/05/13 08:47:08;;;;;;;9.68;2.13;;;17.90;99.90;;;;;;5111416;28;20083;-63
2022/05/13 08:49:36;;;;;;;5.95;2.33;;;18.70;99.90;;;;;;5093513;28;20147;-60
2022/05/13 08:53:06;;;;;;;4.70;1.85;;;18.70;99.90;;;;;;5111111;28;20127;-61
2022/05/13 08:54:53;;;;;;;9.13;2.13;;;18.60;99.90;;;;;;5110777;28;20138;-60
2022/05/13 08:57:20;;;;;;;5.22;1.92;;;18.30;99.90;;;;;;5092823;28;20047;-60
2022/05/13 09:00:03;;;;;;;8.52;2.00;;;17.80;99.90;;;;;;5093496;28;20118;-61
2022/05/13 09:02:41;;;;;;;5.78;1.80;;;17.40;99.90;;;;;;5111494;28;20066;-61
2022/05/13 09:05:26;;;;;;;7.47;2.25;;;17.30;99.90;;;;;;5092945;28;20043;-61
2022/05/13 09:07:53;;;;;;;5.13;1.95;;;18.10;99.90;;;;;;5110975;28;20055;-63
2022/05/13 09:10:19;;;;;;;7.63;1.83;;;19.00;99.90;;;;;;5093203;28;20044;-60
2022/05/13 09:13:09;;;;;;;7.88;1.95;;;19.30;99.70;;;;;;5075879;28;20058;-61
2022/05/13 09:15:41;;;;;;;7.03;1.90;;;19.10;99.10;;;;;;5111792;28;20062;-61
2022/05/13 09:18:17;;;;;;;8.25;1.90;;;18.50;99.10;;;;;;5092064;28;20476;-59
2022/05/13 09:20:55;;;;;;;9.70;2.17;;;18.00;99.80;;;;;;5076636;28;20113;-60
2022/05/13 09:23:21;;;;;;;8.02;2.10;;;17.90;99.90;;;;;;5110842;28;20054;-60
2022/05/13 09:26:05;;;;;;;6.80;1.85;;;18.30;99.90;;;;;;5111072;28;20496;-60
2022/05/13 09:28:34;;;;;;;6.47;1.77;;;18.60;99.60;;;;;;5092541;28;20534;-60
2022/05/13 09:31:21;;;;;;;4.82;1.70;;;18.50;99.20;;;;;;5075770;28;20063;-60
2022/05/13 09:33:49;;;;;;;7.63;1.90;;;18.20;99.60;;;;;;5110855;28;20117;-60
2022/05/13 09:36:23;;;;;;;7.72;1.90;;;17.90;99.90;;;;;;5076085;28;20269;-60
2022/05/13 09:38:52;;;;;;;5.22;1.90;;;18.00;99.90;;;;;;5110712;28;20117;-61
2022/05/13 09:41:33;;;;;;;6.68;1.88;;;18.20;99.90;;;;;;5110760;28;20035;-60
2022/05/13 09:44:18;;;;;;;6.90;1.55;;;18.10;99.90;;;;;;5093413;28;20054;-60
2022/05/13 09:47:30;;;;;;;4.93;1.90;;;18.00;99.90;;;;;;5079721;28;20084;-59
2022/05/13 09:49:59;;;;;;;5.00;1.75;;;17.70;99.90;;;;;;5110854;28;20059;-59
2022/05/13 09:52:37;;;;;;;5.38;1.50;;;17.50;99.90;;;;;;5114767;28;20488;-59
2022/05/13 09:55:14;;;;;;;6.70;1.63;;;17.20;99.90;;;;;;5096555;28;20098;-60
2022/05/13 09:57:40;;;;;;;3.85;1.60;;;17.20;99.90;;;;;;5096811;28;20075;-59
2022/05/13 10:00:18;;;;;;;4.47;1.52;;;17.10;99.90;;;;;;5079347;28;20046;-59
2022/05/13 10:02:47;;;;;;;4.50;1.88;;;17.10;99.90;;;;;;5114650;28;20047;-59
2022/05/13 10:05:24;;;;;;;5.72;2.08;;;17.00;99.90;;;;;;5096330;28;20040;-61
2022/05/13 10:07:49;;;;;;;7.53;2.30;;;16.90;99.90;;;;;;5096679;28;20126;-63
2022/05/13 10:16:33;;;;;;;6.72;1.77;;;17.50;99.90;;;;;;5114164;28;20055;-62
2022/05/13 10:19:06;;;;;;;5.07;1.65;;;17.70;99.90;;;;;;5079487;28;20040;-60
2022/05/13 10:21:54;;;;;;;8.10;2.08;;;18.00;99.90;;;;;;5096330;28;20048;-60
2022/05/13 10:24:41;;;;;;;6.32;2.25;;;18.20;99.90;;;;;;5095896;28;20201;-59
2022/05/13 10:27:14;;;;;;;6.00;2.22;;;18.50;99.90;;;;;;5113778;28;20051;-60
2022/05/13 10:29:45;;;;;;;7.75;1.83;;;18.70;99.80;;;;;;5096150;28;20054;-59
2022/05/13 10:32:25;;;;;;;6.55;2.03;;;18.90;99.90;;;;;;5095582;28;20066;-60
2022/05/13 10:34:54;;;;;;;4.95;1.77;;;19.10;99.30;;;;;;5095980;28;20047;-60
2022/05/13 10:37:34;;;;;;;5.63;1.90;;;19.20;98.10;;;;;;5095325;28;20043;-60
2022/05/13 10:40:12;;;;;;;6.28;1.80;;;19.20;98.20;;;;;;5078876;28;20089;-59
2022/05/13 10:42:42;;;;;;;5.65;2.22;;;19.30;98.00;;;;;;5113529;28;20473;-61
2022/05/13 10:45:19;;;;;;;4.80;1.83;;;19.60;97.50;;;;;;5113365;28;20042;-60
2022/05/13 10:47:51;;;;;;;5.25;1.85;;;19.50;96.60;;;;;;5113528;28;20048;-60
2022/05/13 10:50:26;;;;;;;5.35;2.08;;;19.40;97.00;;;;;;5113499;28;20087;-60
2022/05/13 10:53:26;;;;;;;9.13;1.98;;;19.20;97.30;;;;;;5095319;28;20488;-60
2022/05/13 10:56:12;;;;;;;6.35;1.77;;;19.10;97.50;;;;;;5056439;28;20130;-60
2022/05/13 10:58:59;;;;;;;4.47;1.80;;;19.10;97.60;;;;;;5113516;28;20090;-59
2022/05/13 11:01:25;;;;;;;6.72;2.08;;;19.00;97.70;;;;;;5113282;28;20057;-59
2022/05/13 11:04:16;;;;;;;5.40;2.03;;;19.00;98.20;;;;;;5095254;28;20481;-59
2022/05/13 11:07:03;;;;;;;4.35;1.98;;;18.80;97.10;;;;;;5113100;28;20081;-60
2022/05/13 11:09:35;;;;;;;3.97;1.52;;;18.80;97.80;;;;;;5094939;28;20043;-60
2022/05/13 11:12:20;;;;;;;4.68;1.88;;;18.70;97.20;;;;;;5113664;28;20137;-60
2022/05/13 11:15:06;;;;;;;5.90;1.60;;;18.50;97.70;;;;;;5113302;28;20046;-60
2022/05/13 11:17:55;;;;;;;6.72;1.98;;;18.40;98.00;;;;;;5112966;28;20066;-59
2022/05/13 11:20:24;;;;;;;5.78;1.88;;;18.30;97.80;;;;;;5112312;28;20047;-61
2022/05/13 11:23:31;;;;;;;7.63;2.13;;;18.30;98.00;;;;;;5113288;28;20047;-61
2022/05/13 11:26:02;;;;;;;6.45;1.98;;;18.30;98.30;;;;;;5075783;28;20056;-60
2022/05/13 11:28:51;;;;;;;6.72;2.42;;;18.20;98.20;;;;;;5094421;28;20043;-58
2022/05/13 11:31:26;;;;;;;5.80;2.17;;;18.10;98.50;;;;;;5111747;28;20543;-59
2022/05/13 11:33:58;;;;;;;8.30;2.28;;;18.00;98.40;;;;;;5094637;28;20143;-59
2022/05/13 11:36:30;;;;;;;7.55;2.05;;;17.90;98.90;;;;;;5112669;28;20122;-59
2022/05/13 11:39:19;;;;;;;7.05;2.33;;;17.90;98.90;;;;;;5112711;28;20384;-60
2022/05/13 11:41:53;;;;;;;6.10;2.00;;;17.90;99.50;;;;;;5048175;28;20048;-58
2022/05/13 11:44:28;;;;;;;10.23;2.53;;;17.80;99.10;;;;;;5112431;28;20100;-59
2022/05/13 11:47:00;;;;;;;7.20;2.00;;;17.90;99.40;;;;;;5112341;28;20488;-59
2022/05/13 11:49:35;;;;;;;8.98;2.50;;;18.00;99.40;;;;;;5092950;28;20047;-59
2022/05/13 11:52:28;;;;;;;7.75;2.58;;;18.10;99.40;;;;;;5094429;28;20047;-59
2022/05/13 11:55:22;;;;;;;7.55;2.30;;;18.10;99.00;;;;;;5066995;28;20083;-60
2022/05/13 11:57:50;;;;;;;6.75;2.20;;;18.10;99.10;;;;;;5112641;28;20075;-60
2022/05/13 12:00:31;;;;;;;7.05;2.03;;;18.10;99.10;;;;;;5112371;28;20043;-59
2022/05/13 12:03:09;;;;;;;7.47;1.95;;;18.20;99.10;;;;;;5112603;28;20036;-60
2022/05/13 12:05:56;;;;;;;6.13;1.95;;;18.20;98.60;;;;;;5112246;28;20048;-59
2022/05/13 12:08:36;;;;;;;5.10;1.92;;;18.20;98.70;;;;;;5093927;28;20066;-59
2022/05/13 12:11:02;;;;;;;5.68;2.10;;;18.10;98.70;;;;;;5112311;28;20044;-59
2022/05/13 12:13:39;;;;;;;5.10;2.00;;;18.10;98.10;;;;;;5112332;28;20093;-60
2022/05/13 12:16:26;;;;;;;7.90;2.35;;;18.00;98.40;;;;;;5112625;28;20361;-63
2022/05/13 12:18:55;;;;;;;8.02;2.53;;;17.90;98.50;;;;;;5112295;28;20067;-59
2022/05/13 12:21:33;;;;;;;13.55;2.38;;;17.80;98.80;;;;;;5111855;28;20050;-59
2022/05/13 12:24:11;;;;;;;5.07;1.95;;;17.70;99.00;;;;;;5112239;28;20503;-59
2022/05/13 12:26:52;;;;;;;9.88;2.05;;;17.90;99.30;;;;;;5111869;28;20500;-60
2022/05/13 12:29:24;;;;;;;6.32;2.08;;;17.90;99.00;;;;;;5111614;28;20090;-61
2022/05/13 12:31:53;;;;;;;5.85;2.03;;;18.10;99.30;;;;;;5093912;28;20085;-59
2022/05/13 12:37:35;;;;;;;;;;;18.30;99.10;;;;;;5094546;28;20369;-59
2022/05/13 12:40:00;;;;;;;7.65;2.53;;;18.30;98.90;;;;;;5093756;28;19939;-58
2022/05/13 12:42:47;;;;;;;7.90;2.40;;;18.30;99.00;;;;;;5111549;28;20047;-58
2022/05/13 12:45:36;;;;;;;7.80;2.55;;;18.20;99.40;;;;;;5093779;28;20052;-59
2022/05/13 12:48:05;;;;;;;6.03;2.20;;;18.20;99.80;;;;;;5078181;28;20070;-59
2022/05/13 12:50:49;;;;;;;5.38;2.33;;;18.30;99.40;;;;;;5111676;28;20055;-60
2022/05/13 12:53:30;;;;;;;7.60;2.28;;;18.30;99.00;;;;;;5111982;28;20122;-60
2022/05/13 12:56:07;;;;;;;7.93;2.50;;;18.30;99.00;;;;;;5093737;28;20410;-60
2022/05/13 12:58:36;;;;;;;8.77;2.33;;;18.30;98.20;;;;;;5111399;28;20048;-60
2022/05/13 13:01:03;;;;;;;9.35;2.20;;;18.20;98.80;;;;;;5111333;28;20051;-59
2022/05/13 13:03:37;;;;;;;9.82;2.47;;;18.20;99.20;;;;;;5111751;28;20386;-60
2022/05/13 13:06:07;;;;;;;;;;;18.40;99.60;;;;;;5094188;28;20057;-60
2022/05/13 13:08:41;;;;;;;11.73;2.63;;;18.40;99.40;;;;;;5076726;28;19970;-60
2022/05/13 13:11:26;;;;;;;9.73;2.13;;;18.40;99.50;;;;;;5111780;28;20130;-60
2022/05/13 13:14:20;;;;;;;8.57;2.53;;;18.40;98.50;;;;;;5111591;28;20407;-60
2022/05/13 13:16:45;;;;;;;8.32;2.42;;;18.40;97.80;;;;;;5111501;28;20040;-60
2022/05/13 13:19:26;;;;;;;6.78;1.77;;;18.30;97.30;;;;;;5113306;28;20441;-61
2022/05/13 13:22:00;;;;;;;6.63;1.90;;;18.40;97.00;;;;;;5115790;28;20515;-60
2022/05/13 13:24:30;;;;;;;8.13;2.30;;;18.40;97.10;;;;;;5114983;28;20055;-61
2022/05/13 13:26:57;;;;;;;5.18;1.98;;;18.50;97.50;;;;;;5115378;28;20258;-59
2022/05/13 13:29:34;;;;;;;6.55;2.20;;;18.60;97.00;;;;;;5097344;28;20601;-59
2022/05/13 13:32:04;;;;;;;5.85;1.98;;;18.70;97.20;;;;;;5114998;28;20139;-60